PWSweather.com
Personal Weather Stations
Station Observations
DEEPSOUTH
Waverley, InvercargillNZ 9810

WaverleyInvercargillNZ 9810

Lat: -46.3926834, Lon: 168.381112

Elevation: 72

Station Type: Davis VP2

http://www.deepsouthweather.co.nz/

Latest ConditionsUpdated 5:20:02 AM GMT+11:11 Tuesday, Jul 29, 2014
Currently Today's Max Today's Min Today's Average
Temperature 48.4°F9.1°C 50.7°F10.4°C 48.4°F9.1°C 49.8°F9.9°C
Dew Point 46.7°F8.2°C 48.5°F9.2°C 42.9°F6.1°C 45.2°F7.3°C
Winds 2.0 mph W3.2 kmh W 6.0 mph N9.7 kmh N - 4.1 mph 6.6 kmh
Wind Gusts 5.0 mph8.0 kmh 12.0 mph19.3 kmh - -
Humidity 94% 95% 75% 84%
Pressure 29.76 in1007.8 mb 29.76 in1007.8 mb 29.69 in1005.4 mb -
Precipitation - 0.02 in0.5 mm - -
Hour Temp Dew Point Humidity Winds Wind Gusts Pressure Precip Precip Rate Daily Precip Total
05:20 AM 48.4°F9.1°C 46.7°F8.2°C 94% 2.0 mph W3.2 kmh W 5.0 mph8.0 kmh 29.76 in1007.8 mb 0.00 in0.0 mm 0.00 in/hr0.0 mm/hr 0.02 in0.5 mm
05:10 AM 48.6°F9.2°C 47.2°F8.4°C 95% 2.0 mph WSW3.2 kmh WSW 5.0 mph8.0 kmh 29.76 in1007.8 mb 0.00 in0.0 mm 0.00 in/hr0.0 mm/hr 0.02 in0.5 mm
05:00 AM 48.6°F9.2°C 46.9°F8.3°C 94% 2.0 mph SW3.2 kmh SW 5.0 mph8.0 kmh 29.76 in1007.8 mb 0.00 in0.0 mm 0.00 in/hr0.0 mm/hr 0.02 in0.5 mm
04:50 AM 48.9°F9.4°C 47.3°F8.5°C 94% 2.0 mph WSW3.2 kmh WSW 6.0 mph9.7 kmh 29.76 in1007.8 mb 0.00 in0.0 mm 0.00 in/hr0.0 mm/hr 0.02 in0.5 mm
04:40 AM 49.5°F9.7°C 47.5°F8.6°C 93% 2.0 mph W3.2 kmh W 7.0 mph11.3 kmh 29.76 in1007.8 mb 0.00 in0.0 mm 0.00 in/hr0.0 mm/hr 0.02 in0.5 mm
04:30 AM 49.8°F9.9°C 47.9°F8.8°C 93% 2.0 mph W3.2 kmh W 7.0 mph11.3 kmh 29.75 in1007.5 mb 0.01 in0.3 mm 0.00 in/hr0.0 mm/hr 0.02 in0.5 mm
04:20 AM 50.2°F10.1°C 48.5°F9.2°C 94% 3.0 mph W4.8 kmh W 10.0 mph16.1 kmh 29.75 in1007.5 mb 0.02 in0.5 mm 0.00 in/hr0.0 mm/hr 0.02 in0.5 mm
04:10 AM 50.2°F10.1°C 48.5°F9.2°C 94% 4.0 mph W6.4 kmh W 10.0 mph16.1 kmh 29.75 in1007.5 mb 0.02 in0.5 mm 0.00 in/hr0.0 mm/hr 0.02 in0.5 mm
04:00 AM 49.8°F9.9°C 48.2°F9.0°C 94% 4.0 mph WSW6.4 kmh WSW 11.0 mph17.7 kmh 29.75 in1007.5 mb 0.02 in0.5 mm 0.00 in/hr0.0 mm/hr 0.02 in0.5 mm
03:50 AM 49.6°F9.8°C 47.7°F8.7°C 93% 5.0 mph WSW8.0 kmh WSW 12.0 mph19.3 kmh 29.75 in1007.5 mb 0.02 in0.5 mm 0.00 in/hr0.0 mm/hr 0.02 in0.5 mm
03:40 AM 49.5°F9.7°C 46.9°F8.3°C 91% 3.0 mph SW4.8 kmh SW 7.0 mph11.3 kmh 29.75 in1007.5 mb 0.02 in0.5 mm 0.06 in/hr1.5 mm/hr 0.02 in0.5 mm
03:30 AM 49.8°F9.9°C 46.1°F7.8°C 87% 4.0 mph SW6.4 kmh SW 12.0 mph19.3 kmh 29.75 in1007.5 mb 0.01 in0.3 mm 0.06 in/hr1.5 mm/hr 0.01 in0.3 mm
03:20 AM 49.8°F9.9°C 45.2°F7.3°C 84% 3.0 mph WSW4.8 kmh WSW 7.0 mph11.3 kmh 29.75 in1007.5 mb 0.00 in0.0 mm 0.00 in/hr0.0 mm/hr 0.00 in0.0 mm
03:10 AM 50.2°F10.1°C 45.2°F7.3°C 83% 2.0 mph W3.2 kmh W 6.0 mph9.7 kmh 29.74 in1007.1 mb 0.00 in0.0 mm 0.00 in/hr0.0 mm/hr 0.00 in0.0 mm
03:00 AM 50.2°F10.1°C 45.2°F7.3°C 83% 5.0 mph NW8.0 kmh NW 8.0 mph12.9 kmh 29.74 in1007.1 mb 0.00 in0.0 mm 0.00 in/hr0.0 mm/hr 0.00 in0.0 mm
02:50 AM 50.2°F10.1°C 44.9°F7.2°C 82% 4.0 mph NW6.4 kmh NW 7.0 mph11.3 kmh 29.73 in1006.8 mb 0.00 in0.0 mm 0.00 in/hr0.0 mm/hr 0.00 in0.0 mm
02:40 AM 50.4°F10.2°C 44.7°F7.1°C 81% 5.0 mph NW8.0 kmh NW 9.0 mph14.5 kmh 29.72 in1006.4 mb 0.00 in0.0 mm 0.00 in/hr0.0 mm/hr 0.00 in0.0 mm
02:30 AM 50.5°F10.3°C 44.9°F7.2°C 81% 5.0 mph NW8.0 kmh NW 8.0 mph12.9 kmh 29.72 in1006.4 mb 0.00 in0.0 mm 0.00 in/hr0.0 mm/hr 0.00 in0.0 mm
02:20 AM 50.7°F10.4°C 44.8°F7.1°C 80% 5.0 mph NNW8.0 kmh NNW 9.0 mph14.5 kmh 29.72 in1006.4 mb 0.00 in0.0 mm 0.00 in/hr0.0 mm/hr 0.00 in0.0 mm
02:10 AM 50.7°F10.4°C 44.4°F6.9°C 79% 5.0 mph NNW8.0 kmh NNW 10.0 mph16.1 kmh 29.71 in1006.1 mb 0.00 in0.0 mm 0.00 in/hr0.0 mm/hr 0.00 in0.0 mm
02:00 AM 50.4°F10.2°C 44.4°F6.9°C 80% 4.0 mph NNW6.4 kmh NNW 8.0 mph12.9 kmh 29.72 in1006.4 mb 0.00 in0.0 mm 0.00 in/hr0.0 mm/hr 0.00 in0.0 mm
01:50 AM 50.2°F10.1°C 44.2°F6.8°C 80% 5.0 mph N8.0 kmh N 10.0 mph16.1 kmh 29.72 in1006.4 mb 0.00 in0.0 mm 0.00 in/hr0.0 mm/hr 0.00 in0.0 mm
01:40 AM 49.8°F9.9°C 43.9°F6.6°C 80% 5.0 mph N8.0 kmh N 9.0 mph14.5 kmh 29.71 in1006.1 mb 0.00 in0.0 mm 0.00 in/hr0.0 mm/hr 0.00 in0.0 mm
01:30 AM 49.6°F9.8°C 43.4°F6.3°C 79% 5.0 mph N8.0 kmh N 10.0 mph16.1 kmh 29.70 in1005.8 mb 0.00 in0.0 mm 0.00 in/hr0.0 mm/hr 0.00 in0.0 mm
01:20 AM 49.6°F9.8°C 43.1°F6.2°C 78% 5.0 mph N8.0 kmh N 9.0 mph14.5 kmh 29.70 in1005.8 mb 0.00 in0.0 mm 0.00 in/hr0.0 mm/hr 0.00 in0.0 mm
01:10 AM 49.8°F9.9°C 43.2°F6.2°C 78% 6.0 mph N9.7 kmh N 12.0 mph19.3 kmh 29.70 in1005.8 mb 0.00 in0.0 mm 0.00 in/hr0.0 mm/hr 0.00 in0.0 mm
01:00 AM 49.6°F9.8°C 43.4°F6.3°C 79% 5.0 mph N8.0 kmh N 12.0 mph19.3 kmh 29.70 in1005.8 mb 0.00 in0.0 mm 0.00 in/hr0.0 mm/hr 0.00 in0.0 mm
12:50 AM 49.6°F9.8°C 43.4°F6.3°C 79% 4.0 mph N6.4 kmh N 12.0 mph19.3 kmh 29.70 in1005.8 mb 0.00 in0.0 mm 0.00 in/hr0.0 mm/hr 0.00 in0.0 mm
12:40 AM 49.8°F9.9°C 43.2°F6.2°C 78% 5.0 mph N8.0 kmh N 11.0 mph17.7 kmh 29.69 in1005.4 mb 0.00 in0.0 mm 0.00 in/hr0.0 mm/hr 0.00 in0.0 mm
12:30 AM 49.8°F9.9°C 42.9°F6.1°C 77% 6.0 mph N9.7 kmh N 10.0 mph16.1 kmh 29.70 in1005.8 mb 0.00 in0.0 mm 0.00 in/hr0.0 mm/hr 0.00 in0.0 mm
12:20 AM 49.8°F9.9°C 42.9°F6.1°C 77% 5.0 mph NNE8.0 kmh NNE 10.0 mph16.1 kmh 29.70 in1005.8 mb 0.00 in0.0 mm 0.00 in/hr0.0 mm/hr 0.00 in0.0 mm
12:10 AM 50.2°F10.1°C 42.9°F6.1°C 76% 5.0 mph NNE8.0 kmh NNE 9.0 mph14.5 kmh 29.70 in1005.8 mb 0.00 in0.0 mm 0.00 in/hr0.0 mm/hr 0.00 in0.0 mm
12:00 AM 50.5°F10.3°C 42.9°F6.1°C 75% 5.0 mph NNE8.0 kmh NNE 10.0 mph16.1 kmh 29.70 in1005.8 mb 0.00 in0.0 mm 0.00 in/hr0.0 mm/hr 0.00 in0.0 mm